Time;durP1;ratioP1;P1;durP2;ratioP2;P2;SDS_P1;SDS_P2;PMS_P1;PMS_P2;Temp;Humidity;BMP_temperature;BMP_pressure;BME280_temperature;BME280_humidity;BME280_pressure;Samples;Min_cycle;Max_cycle;Signal;HPM_P1;HPM_P2
2023/07/01 00:00:57;;;;;;;1999.90;999.90;;;19.80;99.90;;;;;;5092037;28;20164;-69
2023/07/01 00:03:23;;;;;;;1999.90;999.90;;;19.90;99.90;;;;;;5092288;28;20450;-69
2023/07/01 00:05:49;;;;;;;1999.90;999.90;;;19.80;99.90;;;;;;5092200;28;20186;-70
2023/07/01 00:08:14;;;;;;;1999.90;999.90;;;19.80;99.90;;;;;;5092333;28;20174;-69
2023/07/01 00:10:40;;;;;;;1999.90;999.90;;;19.90;99.90;;;;;;5092273;28;20409;-69
2023/07/01 00:13:05;;;;;;;1999.90;999.90;;;19.90;99.90;;;;;;5091837;28;20569;-69
2023/07/01 00:15:31;;;;;;;1999.90;999.90;;;19.80;99.90;;;;;;5092057;28;20193;-70
2023/07/01 00:17:57;;;;;;;1999.90;999.90;;;19.70;99.90;;;;;;5092171;28;20164;-69
2023/07/01 00:20:24;;;;;;;1999.90;999.90;;;19.70;99.90;;;;;;5092120;28;20169;-69
2023/07/01 00:22:50;;;;;;;1999.90;999.90;;;19.80;99.90;;;;;;5091763;28;20319;-69
2023/07/01 00:25:15;;;;;;;1999.90;999.90;;;19.80;99.90;;;;;;5091953;28;20957;-69
2023/07/01 00:27:41;;;;;;;1999.90;999.90;;;19.80;99.90;;;;;;5092073;28;20186;-69
2023/07/01 00:30:08;;;;;;;1999.90;999.90;;;19.80;99.90;;;;;;5092070;28;20173;-69
2023/07/01 00:32:33;;;;;;;1999.90;999.90;;;19.80;99.90;;;;;;5091690;28;20209;-69
2023/07/01 00:34:59;;;;;;;1999.90;999.90;;;19.80;99.90;;;;;;5091858;28;20798;-70
2023/07/01 00:37:24;;;;;;;1999.90;999.90;;;19.80;99.90;;;;;;5092023;28;20163;-69
2023/07/01 00:39:50;;;;;;;1999.90;999.90;;;19.80;99.90;;;;;;5091891;28;20169;-69
2023/07/01 00:42:16;;;;;;;1999.90;999.90;;;19.70;99.90;;;;;;5091708;28;20261;-69
2023/07/01 00:44:41;;;;;;;1999.90;999.90;;;19.80;99.90;;;;;;5091918;28;20212;-69
2023/07/01 00:47:07;;;;;;;1999.90;999.90;;;19.70;99.90;;;;;;5091882;28;20823;-69
2023/07/01 00:49:33;;;;;;;1999.90;999.90;;;19.70;99.90;;;;;;5091810;28;20186;-69
2023/07/01 00:51:59;;;;;;;1999.90;999.90;;;19.70;99.90;;;;;;5091554;28;20396;-69
2023/07/01 00:54:26;;;;;;;1999.90;999.90;;;19.70;99.90;;;;;;5091744;28;20448;-70
2023/07/01 00:56:52;;;;;;;1999.90;999.90;;;19.70;99.90;;;;;;5091535;28;20434;-69
2023/07/01 00:59:17;;;;;;;1999.90;999.90;;;19.70;99.90;;;;;;5091771;28;20499;-69
2023/07/01 01:01:46;;;;;;;1999.90;999.90;;;19.70;99.90;;;;;;5091498;28;20208;-69
2023/07/01 01:04:37;;;;;;;1999.90;999.90;;;19.60;99.90;;;;;;5091742;28;20163;-69
2023/07/01 01:07:15;;;;;;;1999.90;999.90;;;19.60;99.90;;;;;;5091781;28;20841;-69
2023/07/01 01:09:55;;;;;;;1999.90;999.90;;;19.60;99.90;;;;;;5095648;28;20408;-69
2023/07/01 01:12:24;;;;;;;1999.90;999.90;;;19.60;99.90;;;;;;5095155;28;20402;-69
2023/07/01 01:14:51;;;;;;;1999.90;999.90;;;19.60;99.90;;;;;;5095442;28;20413;-69
2023/07/01 01:17:19;;;;;;;1999.90;999.90;;;19.60;99.90;;;;;;5095369;28;20875;-69
2023/07/01 01:19:59;;;;;;;1999.90;999.90;;;19.60;99.90;;;;;;5095394;28;20461;-69
2023/07/01 01:22:37;;;;;;;1999.90;999.90;;;19.60;99.90;;;;;;5094969;28;20477;-69
2023/07/01 01:25:07;;;;;;;1999.90;999.90;;;19.60;99.90;;;;;;5095298;28;20802;-69
2023/07/01 01:27:40;;;;;;;1999.90;999.90;;;19.60;99.90;;;;;;5093576;28;20913;-69
2023/07/01 01:30:06;;;;;;;1999.90;999.90;;;19.60;99.90;;;;;;5092805;28;20404;-69
2023/07/01 01:32:35;;;;;;;1999.90;999.90;;;19.50;99.90;;;;;;5092411;28;20451;-69
2023/07/01 01:35:02;;;;;;;1999.90;999.90;;;19.50;99.90;;;;;;5093504;28;20394;-69
2023/07/01 01:37:37;;;;;;;1999.90;999.90;;;19.50;99.90;;;;;;5095130;28;20402;-69
2023/07/01 01:40:29;;;;;;;1999.90;999.90;;;19.50;99.90;;;;;;5095005;28;20427;-69
2023/07/01 01:43:03;;;;;;;1999.90;999.90;;;19.40;99.90;;;;;;5094486;28;20520;-69
2023/07/01 01:45:30;;;;;;;1999.90;999.90;;;19.50;99.90;;;;;;5094930;28;20418;-69
2023/07/01 01:47:56;;;;;;;1999.90;999.90;;;19.40;99.90;;;;;;5094891;28;20557;-69
2023/07/01 01:50:22;;;;;;;1999.90;999.90;;;19.50;99.90;;;;;;5094803;28;20498;-69
2023/07/01 01:52:50;;;;;;;1999.90;999.90;;;19.50;99.90;;;;;;5094504;28;20188;-69
2023/07/01 01:55:17;;;;;;;1999.90;999.90;;;19.40;99.90;;;;;;5094578;28;20414;-69
2023/07/01 01:57:43;;;;;;;1999.90;999.90;;;19.50;99.90;;;;;;5094764;28;20488;-69
2023/07/01 02:00:12;;;;;;;1999.90;999.90;;;19.40;99.90;;;;;;5094765;28;20539;-69
2023/07/01 02:02:38;;;;;;;1999.90;999.90;;;19.40;99.90;;;;;;5094302;28;20423;-69
2023/07/01 02:05:04;;;;;;;1999.90;999.90;;;19.40;99.90;;;;;;5094422;28;20410;-69
2023/07/01 02:07:30;;;;;;;1999.90;999.90;;;19.40;99.90;;;;;;5094477;28;20535;-69
2023/07/01 02:09:55;;;;;;;1999.90;999.90;;;19.40;99.90;;;;;;5094460;28;20523;-69
2023/07/01 02:12:21;;;;;;;1999.90;999.90;;;19.50;99.90;;;;;;5094144;28;20171;-69
2023/07/01 02:14:46;;;;;;;1999.90;999.90;;;19.50;99.90;;;;;;5094527;28;20174;-69
2023/07/01 02:17:12;;;;;;;1999.90;999.90;;;19.40;99.90;;;;;;5094472;28;20245;-69
2023/07/01 02:19:38;;;;;;;1999.90;999.90;;;19.40;99.90;;;;;;5093921;28;20642;-69
2023/07/01 02:22:04;;;;;;;1999.90;999.90;;;19.40;99.90;;;;;;5093802;28;20746;-69
2023/07/01 02:24:29;;;;;;;1999.90;999.90;;;19.40;99.90;;;;;;5094456;28;20183;-69
2023/07/01 02:26:55;;;;;;;1999.90;999.90;;;19.40;99.90;;;;;;5094183;28;20507;-69
2023/07/01 02:29:20;;;;;;;1999.90;999.90;;;19.40;99.90;;;;;;5094128;28;20162;-69
2023/07/01 02:31:46;;;;;;;1999.90;999.90;;;19.40;99.90;;;;;;5093984;28;20170;-67
2023/07/01 02:34:12;;;;;;;1999.90;999.90;;;19.40;99.90;;;;;;5093955;28;20742;-67
2023/07/01 02:36:43;;;;;;;1999.90;999.90;;;19.40;99.90;;;;;;5093848;28;20785;-67
2023/07/01 02:39:09;;;;;;;1999.90;999.90;;;19.40;99.90;;;;;;5093907;28;20483;-67
2023/07/01 02:41:34;;;;;;;1999.90;999.90;;;19.40;99.90;;;;;;5093582;28;20456;-67
2023/07/01 02:44:00;;;;;;;1999.90;999.90;;;19.40;99.90;;;;;;5093849;28;21009;-67
2023/07/01 02:46:27;;;;;;;1999.90;999.90;;;19.30;99.90;;;;;;5093803;28;20190;-67
2023/07/01 02:48:52;;;;;;;1999.90;999.90;;;19.30;99.90;;;;;;5093718;28;20167;-67
2023/07/01 02:51:18;;;;;;;1999.90;999.90;;;19.30;99.90;;;;;;5093369;28;20413;-67
2023/07/01 02:53:44;;;;;;;1999.90;999.90;;;19.30;99.90;;;;;;5093570;28;20668;-67
2023/07/01 02:56:09;;;;;;;1999.90;999.90;;;19.20;99.90;;;;;;5093486;28;20263;-67
2023/07/01 02:58:35;;;;;;;1999.90;999.90;;;19.30;99.90;;;;;;5093781;28;20233;-67
2023/07/01 03:01:01;;;;;;;1999.90;999.90;;;19.30;99.90;;;;;;5093158;28;20172;-69
2023/07/01 03:03:26;;;;;;;1999.90;999.90;;;19.30;99.90;;;;;;5093421;28;20176;-69
2023/07/01 03:05:52;;;;;;;1999.90;999.90;;;19.30;99.90;;;;;;5093291;28;20237;-69
2023/07/01 03:08:17;;;;;;;1999.90;999.90;;;19.30;99.90;;;;;;5093346;28;20173;-69
2023/07/01 03:10:43;;;;;;;1999.90;999.90;;;19.30;99.90;;;;;;5093300;28;20173;-69
2023/07/01 03:13:08;;;;;;;1999.90;999.90;;;19.20;99.90;;;;;;5092899;28;20192;-69
2023/07/01 03:15:34;;;;;;;1999.90;999.90;;;19.20;99.90;;;;;;5093133;28;20587;-69
2023/07/01 03:17:59;;;;;;;1999.90;999.90;;;19.20;99.90;;;;;;5093107;28;20166;-69
2023/07/01 03:20:25;;;;;;;1999.90;999.90;;;19.10;99.90;;;;;;5093140;28;20199;-69
2023/07/01 03:22:56;;;;;;;1999.90;999.90;;;19.10;99.90;;;;;;5092673;28;20655;-69
2023/07/01 03:25:22;;;;;;;1999.90;999.90;;;19.10;99.90;;;;;;5093071;28;20209;-69
2023/07/01 03:27:48;;;;;;;1999.90;999.90;;;19.20;99.90;;;;;;5092976;28;20896;-69
2023/07/01 03:30:16;;;;;;;1999.90;999.90;;;19.20;99.90;;;;;;5092195;28;20901;-69
2023/07/01 03:32:46;;;;;;;1999.90;999.90;;;19.20;99.90;;;;;;5092506;28;20453;-69
2023/07/01 03:35:13;;;;;;;1999.90;999.90;;;19.20;99.90;;;;;;5092794;28;20770;-69
2023/07/01 03:37:40;;;;;;;1999.90;999.90;;;19.10;99.90;;;;;;5092831;28;20430;-69
2023/07/01 03:40:12;;;;;;;1999.90;999.90;;;19.20;99.90;;;;;;5092775;28;20400;-69
2023/07/01 03:42:40;;;;;;;1999.90;999.90;;;19.20;99.90;;;;;;5092544;28;20495;-69
2023/07/01 03:45:07;;;;;;;1999.90;999.90;;;19.20;99.90;;;;;;5092613;28;20433;-69
2023/07/01 03:47:43;;;;;;;1999.90;999.90;;;19.20;99.90;;;;;;5092949;28;20413;-70
2023/07/01 03:50:13;;;;;;;1999.90;999.90;;;19.20;99.90;;;;;;5092628;28;20402;-70
2023/07/01 03:52:39;;;;;;;1999.90;999.90;;;19.20;99.90;;;;;;5092313;28;20450;-70
2023/07/01 03:55:06;;;;;;;1999.90;999.90;;;19.30;99.90;;;;;;5092395;28;20746;-70
2023/07/01 03:57:33;;;;;;;1999.90;999.90;;;19.30;99.90;;;;;;5092476;28;21003;-70
2023/07/01 03:59:59;;;;;;;1999.90;999.90;;;19.30;99.90;;;;;;5092375;28;20495;-70
2023/07/01 04:02:25;;;;;;;1999.90;999.90;;;19.20;99.90;;;;;;5092073;28;20500;-70
2023/07/01 04:04:51;;;;;;;1999.90;999.90;;;19.30;99.90;;;;;;5092428;28;20401;-70
2023/07/01 04:07:21;;;;;;;1999.90;999.90;;;19.30;99.90;;;;;;5092375;28;20183;-70
2023/07/01 04:09:48;;;;;;;1999.90;999.90;;;19.30;99.90;;;;;;5092491;28;20441;-70
2023/07/01 04:12:14;;;;;;;1999.90;999.90;;;19.20;99.90;;;;;;5091887;28;20460;-70
2023/07/01 04:14:39;;;;;;;1999.90;999.90;;;19.20;99.90;;;;;;5092326;28;20799;-70
2023/07/01 04:17:05;;;;;;;1999.90;999.90;;;19.20;99.90;;;;;;5092120;28;20191;-70
2023/07/01 04:19:31;;;;;;;1999.90;999.90;;;19.20;99.90;;;;;;5092177;28;20181;-70
2023/07/01 04:21:56;;;;;;;1999.90;999.90;;;19.20;99.90;;;;;;5091863;28;20241;-69
2023/07/01 04:24:22;;;;;;;1999.90;999.90;;;19.20;99.90;;;;;;5092115;28;20180;-70
2023/07/01 04:26:48;;;;;;;1999.90;999.90;;;19.30;99.90;;;;;;5092066;28;20324;-70
2023/07/01 04:29:14;;;;;;;1999.90;999.90;;;19.20;99.90;;;;;;5092000;28;20188;-69
2023/07/01 04:31:39;;;;;;;1999.90;999.90;;;19.20;99.90;;;;;;5092132;28;20631;-70
2023/07/01 04:34:05;;;;;;;1999.90;999.90;;;19.20;99.90;;;;;;5092031;28;20201;-70
2023/07/01 04:36:30;;;;;;;1999.90;999.90;;;19.20;99.90;;;;;;5092009;28;20606;-70
2023/07/01 04:38:56;;;;;;;1999.90;999.90;;;19.30;99.90;;;;;;5092053;28;20536;-70
2023/07/01 04:41:22;;;;;;;1999.90;999.90;;;19.30;99.90;;;;;;5092527;28;20170;-70
2023/07/01 04:43:47;;;;;;;1999.90;999.90;;;19.40;99.90;;;;;;5096127;28;20581;-69
2023/07/01 04:46:13;;;;;;;1999.90;999.90;;;19.30;99.90;;;;;;5096214;28;20203;-70
2023/07/01 04:48:38;;;;;;;1999.90;999.90;;;19.40;99.90;;;;;;5096129;28;20177;-69
2023/07/01 04:51:04;;;;;;;1999.90;999.90;;;19.40;99.90;;;;;;5095869;28;20618;-70
2023/07/01 04:53:29;;;;;;;1999.90;999.90;;;19.40;99.90;;;;;;5095917;28;20283;-70
2023/07/01 04:55:55;;;;;;;1999.90;999.90;;;19.50;99.90;;;;;;5095991;28;20193;-70
2023/07/01 04:58:21;;;;;;;1999.90;999.90;;;19.60;99.90;;;;;;5095861;28;20278;-70
2023/07/01 05:00:46;;;;;;;1999.90;999.90;;;19.60;99.90;;;;;;5095770;28;20170;-70
2023/07/01 05:03:12;;;;;;;1999.90;999.90;;;19.70;99.90;;;;;;5097508;28;20174;-69
2023/07/01 05:05:38;;;;;;;1999.90;999.90;;;19.70;99.90;;;;;;5097090;28;20214;-70
2023/07/01 05:08:04;;;;;;;1999.90;999.90;;;19.80;99.90;;;;;;5095710;28;20180;-70
2023/07/01 05:10:29;;;;;;;1999.90;999.90;;;19.70;99.90;;;;;;5095627;28;20746;-70
2023/07/01 05:12:55;;;;;;;1999.90;999.90;;;19.80;99.90;;;;;;5095263;28;20326;-70
2023/07/01 05:15:21;;;;;;;1999.90;999.90;;;19.70;99.90;;;;;;5095629;28;20190;-70
2023/07/01 05:17:47;;;;;;;1999.90;999.90;;;19.70;99.90;;;;;;5095474;28;20487;-70
2023/07/01 05:20:12;;;;;;;1999.90;999.90;;;19.70;99.90;;;;;;5095473;28;20171;-70
2023/07/01 05:22:38;;;;;;;1999.90;999.90;;;19.70;99.90;;;;;;5095048;28;20267;-69
2023/07/01 05:25:04;;;;;;;1999.90;999.90;;;19.70;99.90;;;;;;5095247;28;20194;-70
2023/07/01 05:27:30;;;;;;;1999.90;999.90;;;19.60;99.90;;;;;;5095249;28;20181;-70
2023/07/01 05:29:56;;;;;;;1999.90;999.90;;;19.60;99.90;;;;;;5095504;28;20403;-69
2023/07/01 05:32:22;;;;;;;1999.90;999.90;;;19.60;99.90;;;;;;5094864;28;20404;-70
2023/07/01 05:34:48;;;;;;;1999.90;999.90;;;19.70;99.90;;;;;;5095151;28;20446;-70
2023/07/01 05:37:13;;;;;;;1999.90;999.90;;;19.70;99.90;;;;;;5095095;28;20190;-70
2023/07/01 05:39:39;;;;;;;1999.90;999.90;;;19.70;99.90;;;;;;5095182;28;20167;-70
2023/07/01 05:42:05;;;;;;;1999.90;999.90;;;19.70;99.90;;;;;;5094686;28;20166;-70
2023/07/01 05:44:31;;;;;;;1999.90;999.90;;;19.70;99.90;;;;;;5094970;28;20531;-70
2023/07/01 05:46:56;;;;;;;1999.90;999.90;;;19.70;99.90;;;;;;5094931;28;20429;-70
2023/07/01 05:49:22;;;;;;;1999.90;999.90;;;19.50;99.90;;;;;;5094885;28;20170;-70
2023/07/01 05:51:48;;;;;;;1999.90;999.90;;;19.40;99.90;;;;;;5094616;28;20247;-70
2023/07/01 05:54:13;;;;;;;1999.90;999.90;;;19.20;99.90;;;;;;5093907;28;20200;-70
2023/07/01 05:56:39;;;;;;;1999.90;999.90;;;19.00;99.90;;;;;;5094590;28;20190;-69
2023/07/01 05:59:05;;;;;;;1999.90;999.90;;;18.80;99.90;;;;;;5094691;28;20161;-69
2023/07/01 06:01:30;;;;;;;1999.90;999.90;;;18.70;99.90;;;;;;5094377;28;20177;-69
2023/07/01 06:03:56;;;;;;;1999.90;999.90;;;18.70;99.90;;;;;;5094748;28;20181;-70
2023/07/01 06:06:21;;;;;;;1999.90;999.90;;;18.60;99.90;;;;;;5094530;28;20732;-69
2023/07/01 06:08:48;;;;;;;1999.90;999.90;;;18.50;99.90;;;;;;5094584;28;20176;-69
2023/07/01 06:11:14;;;;;;;1999.90;999.90;;;18.30;99.90;;;;;;5094391;28;20253;-68
2023/07/01 06:13:47;;;;;;;1999.90;999.90;;;18.10;99.90;;;;;;5094600;28;20547;-70
2023/07/01 06:16:13;;;;;;;1999.90;999.90;;;18.00;99.90;;;;;;5094365;28;20432;-70
2023/07/01 06:18:39;;;;;;;1999.90;999.90;;;17.90;99.90;;;;;;5094274;28;20400;-69
2023/07/01 06:21:06;;;;;;;1999.90;999.90;;;17.80;99.90;;;;;;5094219;28;20776;-69
2023/07/01 06:23:32;;;;;;;1999.90;999.90;;;17.70;99.90;;;;;;5094250;28;20783;-69
2023/07/01 06:25:58;;;;;;;1999.90;999.90;;;17.60;99.90;;;;;;5094210;28;20431;-69
2023/07/01 06:28:23;;;;;;;1999.90;999.90;;;17.50;99.90;;;;;;5094150;28;20827;-69
2023/07/01 06:30:49;;;;;;;1999.90;999.90;;;17.50;99.90;;;;;;5095496;28;20178;-70
2023/07/01 06:33:14;;;;;;;1999.90;999.90;;;17.40;99.90;;;;;;5096842;28;20671;-70
2023/07/01 06:35:42;;;;;;;1999.90;999.90;;;17.40;99.90;;;;;;5097260;28;20206;-70
2023/07/01 06:38:09;;;;;;;1999.90;999.90;;;17.30;99.90;;;;;;5095941;28;20636;-70
2023/07/01 06:40:35;;;;;;;1999.90;999.90;;;17.30;99.90;;;;;;5096041;28;20408;-70
2023/07/01 06:43:02;;;;;;;1999.90;999.90;;;17.30;99.90;;;;;;5095964;28;20412;-70
2023/07/01 06:45:28;;;;;;;1999.90;999.90;;;17.30;99.90;;;;;;5094901;28;20185;-70
2023/07/01 06:47:53;;;;;;;1999.90;999.90;;;17.30;99.90;;;;;;5095450;28;20426;-70
2023/07/01 06:50:19;;;;;;;1999.90;999.90;;;17.30;99.90;;;;;;5095119;28;20668;-70
2023/07/01 06:52:45;;;;;;;1999.90;999.90;;;17.30;99.90;;;;;;5094949;28;20194;-70
2023/07/01 06:55:13;;;;;;;1999.90;999.90;;;17.30;99.90;;;;;;5095104;28;20256;-70
2023/07/01 06:57:39;;;;;;;1999.90;999.90;;;17.30;99.90;;;;;;5094989;28;20552;-70
2023/07/01 07:00:06;;;;;;;1999.90;999.90;;;17.30;99.90;;;;;;5094487;28;20406;-70
2023/07/01 07:02:32;;;;;;;1999.90;999.90;;;17.30;99.90;;;;;;5093720;28;20432;-70
2023/07/01 07:04:57;;;;;;;1999.90;999.90;;;17.40;99.90;;;;;;5093172;28;20444;-70
2023/07/01 07:07:23;;;;;;;1999.90;999.90;;;17.40;99.90;;;;;;5094105;28;20326;-70
2023/07/01 07:09:48;;;;;;;1999.90;999.90;;;17.50;99.90;;;;;;5093922;28;20169;-70
2023/07/01 07:12:14;;;;;;;1999.90;999.90;;;17.60;99.90;;;;;;5093736;28;20221;-70
2023/07/01 07:14:39;;;;;;;1999.90;999.90;;;17.70;99.90;;;;;;5094137;28;20205;-69
2023/07/01 07:17:05;;;;;;;1999.90;999.90;;;17.70;99.90;;;;;;5094012;28;20543;-70
2023/07/01 07:19:31;;;;;;;1999.90;999.90;;;17.90;99.90;;;;;;5092047;28;20172;-70
2023/07/01 07:21:56;;;;;;;1999.90;999.90;;;18.00;99.90;;;;;;5093395;28;20431;-70
2023/07/01 07:24:22;;;;;;;1999.90;999.90;;;18.10;99.90;;;;;;5093998;28;20175;-70
2023/07/01 07:27:00;;;;;;;1999.90;999.90;;;18.10;99.90;;;;;;5095882;28;20229;-70
2023/07/01 07:29:27;;;;;;;1999.90;999.90;;;18.10;99.90;;;;;;5096485;28;20169;-69
2023/07/01 07:31:52;;;;;;;1999.90;999.90;;;18.20;99.90;;;;;;5096165;28;20468;-70
2023/07/01 07:34:18;;;;;;;1999.90;999.90;;;18.30;99.90;;;;;;5096230;28;20448;-70
2023/07/01 07:36:44;;;;;;;1999.90;999.90;;;18.40;99.90;;;;;;5095728;28;20271;-70
2023/07/01 07:39:12;;;;;;;1999.90;999.90;;;18.50;99.90;;;;;;5096120;28;20188;-70
2023/07/01 07:41:39;;;;;;;1999.90;999.90;;;18.60;99.90;;;;;;5095975;28;20240;-69
2023/07/01 07:44:04;;;;;;;1999.90;999.90;;;18.60;99.90;;;;;;5095836;28;20635;-70
2023/07/01 07:46:30;;;;;;;1999.90;999.90;;;18.60;99.90;;;;;;5095332;28;20527;-70
2023/07/01 07:48:55;;;;;;;1999.90;999.90;;;18.60;99.90;;;;;;5093716;28;20230;-70
2023/07/01 07:51:21;;;;;;;1999.90;999.90;;;18.50;99.90;;;;;;5094400;28;20648;-70
2023/07/01 07:53:47;;;;;;;1999.90;999.90;;;18.30;99.90;;;;;;5093796;28;20233;-70
2023/07/01 07:56:13;;;;;;;1999.90;999.90;;;18.20;99.90;;;;;;5094311;28;20815;-70
2023/07/01 07:58:38;;;;;;;1999.90;999.90;;;18.20;99.90;;;;;;5095238;28;20188;-70
2023/07/01 08:01:04;;;;;;;1999.90;999.90;;;18.10;99.90;;;;;;5094228;28;20162;-69
2023/07/01 08:03:29;;;;;;;1999.90;999.90;;;18.10;99.90;;;;;;5094263;28;20175;-70
2023/07/01 08:05:55;;;;;;;1999.90;999.90;;;18.20;99.90;;;;;;5094918;28;20182;-69
2023/07/01 08:08:21;;;;;;;1999.90;999.90;;;18.20;99.90;;;;;;5095335;28;20167;-70
2023/07/01 08:10:46;;;;;;;1999.90;999.90;;;18.30;99.90;;;;;;5095452;28;20645;-69
2023/07/01 08:13:13;;;;;;;1999.90;999.90;;;18.40;99.90;;;;;;5093321;28;20222;-70
2023/07/01 08:15:39;;;;;;;1999.90;999.90;;;18.60;99.90;;;;;;5092107;28;20194;-70
2023/07/01 08:18:05;;;;;;;1999.90;999.90;;;18.70;99.90;;;;;;5091986;28;20935;-70
2023/07/01 08:20:30;;;;;;;1999.90;999.90;;;18.70;99.90;;;;;;5092180;28;20397;-70
2023/07/01 08:22:56;;;;;;;1999.90;999.90;;;18.90;99.90;;;;;;5091755;28;20655;-70
2023/07/01 08:25:21;;;;;;;1999.90;999.90;;;18.90;99.90;;;;;;5091673;28;20230;-69
2023/07/01 08:27:47;;;;;;;1999.90;999.90;;;19.00;99.90;;;;;;5092126;28;20197;-70
2023/07/01 08:30:13;;;;;;;1999.90;999.90;;;19.10;99.90;;;;;;5092148;28;20184;-69
2023/07/01 08:32:40;;;;;;;1999.90;999.90;;;19.10;99.90;;;;;;5091738;28;20688;-70
2023/07/01 08:35:06;;;;;;;1999.90;999.90;;;19.30;99.90;;;;;;5091850;28;20253;-69
2023/07/01 08:37:31;;;;;;;1999.90;999.90;;;19.40;99.90;;;;;;5092008;28;20494;-69
2023/07/01 08:39:57;;;;;;;1999.90;999.90;;;19.50;99.90;;;;;;5092006;28;20411;-69
2023/07/01 08:42:30;;;;;;;1999.90;999.90;;;19.60;99.90;;;;;;5091663;28;20166;-69
2023/07/01 08:44:56;;;;;;;1999.90;999.90;;;19.60;99.90;;;;;;5092015;28;20173;-69
2023/07/01 08:47:24;;;;;;;1999.90;999.90;;;19.60;99.90;;;;;;5092040;28;20825;-69
2023/07/01 08:49:54;;;;;;;1999.90;999.90;;;19.70;99.90;;;;;;5091677;28;20469;-69
2023/07/01 08:52:21;;;;;;;1999.90;999.90;;;19.70;99.90;;;;;;5091554;28;20422;-69
2023/07/01 08:54:47;;;;;;;1999.90;999.90;;;19.80;99.90;;;;;;5091767;28;20911;-69
2023/07/01 08:57:14;;;;;;;1999.90;999.90;;;19.80;99.90;;;;;;5092003;28;20784;-70
2023/07/01 08:59:42;;;;;;;1999.90;999.90;;;19.80;99.90;;;;;;5092488;28;20402;-69
2023/07/01 09:02:08;;;;;;;1999.90;999.90;;;19.80;99.90;;;;;;5092961;28;20764;-70
2023/07/01 09:04:37;;;;;;;1999.90;999.90;;;19.80;99.90;;;;;;5093267;28;20404;-70
2023/07/01 09:07:03;;;;;;;1999.90;999.90;;;19.80;99.90;;;;;;5092900;28;20625;-70
2023/07/01 09:09:29;;;;;;;1999.90;999.90;;;19.80;99.90;;;;;;5092362;28;20469;-70
2023/07/01 09:11:54;;;;;;;1999.90;999.90;;;19.70;99.90;;;;;;5092708;28;20786;-70
2023/07/01 09:14:20;;;;;;;1999.90;999.90;;;19.70;99.90;;;;;;5092291;28;20207;-70
2023/07/01 09:16:46;;;;;;;1999.90;999.90;;;19.60;99.90;;;;;;5092317;28;20201;-70
2023/07/01 09:19:16;;;;;;;1999.90;999.90;;;19.50;99.90;;;;;;5092306;28;20621;-70
2023/07/01 09:21:42;;;;;;;1999.90;999.90;;;19.40;99.90;;;;;;5092318;28;20193;-70
2023/07/01 09:24:10;;;;;;;1999.90;999.90;;;19.30;99.90;;;;;;5092210;28;20414;-70
2023/07/01 09:26:35;;;;;;;1999.90;999.90;;;19.20;99.90;;;;;;5092272;28;20202;-70
2023/07/01 09:29:12;;;;;;;1999.90;999.90;;;19.10;99.90;;;;;;5093972;28;20854;-70
2023/07/01 09:31:48;;;;;;;1999.90;999.90;;;18.90;99.90;;;;;;5095866;28;20609;-70
2023/07/01 09:34:15;;;;;;;1999.90;999.90;;;18.80;99.90;;;;;;5095824;28;20460;-69
2023/07/01 09:36:40;;;;;;;1999.90;999.90;;;18.80;99.90;;;;;;5095951;28;20445;-69
2023/07/01 09:39:06;;;;;;;1999.90;999.90;;;18.80;99.90;;;;;;5097697;28;20432;-70
2023/07/01 09:41:31;;;;;;;1999.90;999.90;;;18.80;99.90;;;;;;5097043;28;20642;-70
2023/07/01 09:43:58;;;;;;;1999.90;999.90;;;18.80;99.90;;;;;;5097851;28;20179;-69
2023/07/01 09:46:46;;;;;;;1999.90;999.90;;;18.90;99.90;;;;;;5097081;28;20687;-70
2023/07/01 09:49:12;;;;;;;1999.90;999.90;;;18.80;99.90;;;;;;5096551;28;20416;-69
2023/07/01 09:51:49;;;;;;;1999.90;999.90;;;18.80;99.90;;;;;;5094710;28;20918;-67
2023/07/01 09:54:29;;;;;;;1999.90;999.90;;;18.90;99.90;;;;;;5094628;28;20190;-69
2023/07/01 09:56:56;;;;;;;1999.90;999.90;;;18.90;99.90;;;;;;5094822;28;20427;-69
2023/07/01 09:59:22;;;;;;;1999.90;999.90;;;18.90;99.90;;;;;;5094723;28;20451;-69
2023/07/01 10:01:50;;;;;;;1999.90;999.90;;;18.90;99.90;;;;;;5094522;28;20406;-69
2023/07/01 10:04:19;;;;;;;1999.90;999.90;;;19.00;99.90;;;;;;5094723;28;20790;-69
2023/07/01 10:06:45;;;;;;;1999.90;999.90;;;19.00;99.90;;;;;;5094397;28;20492;-69
2023/07/01 10:09:11;;;;;;;1999.90;999.90;;;19.00;99.90;;;;;;5094473;28;20408;-69
2023/07/01 10:11:37;;;;;;;1999.90;999.90;;;19.00;99.90;;;;;;5094428;28;20170;-69
2023/07/01 10:14:04;;;;;;;1999.90;999.90;;;19.10;99.90;;;;;;5094341;28;20223;-69
2023/07/01 10:16:30;;;;;;;1999.90;999.90;;;19.20;99.90;;;;;;5094413;28;20426;-69
2023/07/01 10:18:56;;;;;;;1999.90;999.90;;;19.30;99.90;;;;;;5094370;28;20399;-69
2023/07/01 10:21:24;;;;;;;1999.90;999.90;;;19.40;99.90;;;;;;5093840;28;20879;-69
2023/07/01 10:23:58;;;;;;;1999.90;999.90;;;19.50;99.90;;;;;;5094365;28;20259;-69
2023/07/01 10:26:34;;;;;;;1999.90;999.90;;;19.60;99.90;;;;;;5094216;28;20420;-69
2023/07/01 10:29:18;;;;;;;1999.90;999.90;;;19.70;99.90;;;;;;5094105;28;20410;-69
2023/07/01 10:32:10;;;;;;;1999.90;999.90;;;19.70;99.90;;;;;;5093760;28;20407;-69
2023/07/01 10:34:55;;;;;;;1999.90;999.90;;;19.70;99.90;;;;;;5093966;28;20469;-69
2023/07/01 10:37:22;;;;;;;1999.90;999.90;;;19.60;99.90;;;;;;5093865;28;20941;-69
2023/07/01 10:39:48;;;;;;;1999.90;999.90;;;19.40;99.90;;;;;;5093643;28;20405;-69
2023/07/01 10:42:36;;;;;;;1999.90;999.90;;;19.30;99.90;;;;;;5093561;28;20780;-69
2023/07/01 10:45:11;;;;;;;1999.90;999.90;;;19.20;99.90;;;;;;5093810;28;21002;-69
2023/07/01 10:47:44;;;;;;;1999.90;999.90;;;19.20;99.90;;;;;;5093747;28;20442;-69
2023/07/01 10:50:14;;;;;;;1999.90;999.90;;;19.20;99.90;;;;;;5093810;28;20497;-69
2023/07/01 10:52:55;;;;;;;1999.90;999.90;;;19.20;99.90;;;;;;5093293;28;20403;-69
2023/07/01 10:55:35;;;;;;;1999.90;999.90;;;19.20;99.90;;;;;;5093802;28;20464;-69
2023/07/01 10:58:21;;;;;;;1999.90;999.90;;;19.20;99.90;;;;;;5093555;28;20399;-69
2023/07/01 11:00:56;;;;;;;1999.90;999.90;;;19.30;99.90;;;;;;5093447;28;20412;-69
2023/07/01 11:03:34;;;;;;;1999.90;999.90;;;19.40;99.90;;;;;;5093536;28;20443;-69
2023/07/01 11:06:06;;;;;;;1999.90;999.90;;;19.50;99.90;;;;;;5093619;28;20511;-69
2023/07/01 11:08:44;;;;;;;1999.90;999.90;;;19.60;99.90;;;;;;5093327;28;20412;-69
2023/07/01 11:11:10;;;;;;;1999.90;999.90;;;19.80;99.90;;;;;;5093039;28;20400;-69
2023/07/01 11:13:35;;;;;;;1999.90;999.90;;;19.90;99.90;;;;;;5093221;28;20984;-69
2023/07/01 11:16:02;;;;;;;1999.90;999.90;;;20.00;99.90;;;;;;5093124;28;20496;-69
2023/07/01 11:18:50;;;;;;;1999.90;999.90;;;20.10;99.90;;;;;;5093250;28;20172;-69
2023/07/01 11:21:21;;;;;;;1999.90;999.90;;;20.20;99.90;;;;;;5092829;28;20814;-69
2023/07/01 11:24:03;;;;;;;1999.90;999.90;;;20.30;99.90;;;;;;5093054;28;20418;-69
2023/07/01 11:26:34;;;;;;;1999.90;999.90;;;20.40;99.90;;;;;;5093191;28;20421;-69
2023/07/01 11:29:00;;;;;;;1999.90;999.90;;;20.50;99.90;;;;;;5093154;28;20495;-69
2023/07/01 11:31:32;;;;;;;1999.90;999.90;;;20.50;99.90;;;;;;5092660;28;20415;-69
2023/07/01 11:33:59;;;;;;;1999.90;999.90;;;20.60;99.90;;;;;;5092862;28;20459;-69
2023/07/01 11:36:37;;;;;;;1999.90;999.90;;;20.60;99.90;;;;;;5092539;28;20433;-69
2023/07/01 11:39:14;;;;;;;1999.90;999.90;;;20.60;99.90;;;;;;5092970;28;20822;-69
2023/07/01 11:41:44;;;;;;;1999.90;999.90;;;20.60;99.90;;;;;;5092504;28;20400;-69
2023/07/01 11:44:13;;;;;;;1999.90;999.90;;;20.60;99.90;;;;;;5088959;28;20412;-69
2023/07/01 11:46:41;;;;;;;1999.90;999.90;;;20.60;99.90;;;;;;5089750;28;20513;-71
2023/07/01 11:49:43;;;;;;;1999.90;999.90;;;20.60;99.90;;;;;;5088731;28;20414;-70
2023/07/01 11:52:09;;;;;;;1999.90;999.90;;;20.70;99.90;;;;;;5058254;28;20467;-70
2023/07/01 11:54:48;;;;;;;1999.90;999.90;;;20.80;99.90;;;;;;5077912;28;20496;-68
2023/07/01 11:57:19;;;;;;;1999.90;999.90;;;20.90;99.90;;;;;;5093655;28;20246;-69
2023/07/01 11:59:47;;;;;;;1999.90;999.90;;;20.80;99.90;;;;;;5092876;28;20418;-70
2023/07/01 12:02:13;;;;;;;1999.90;999.90;;;20.80;99.90;;;;;;5089170;28;20505;-70